Time;durP1;ratioP1;P1;durP2;ratioP2;P2;SDS_P1;SDS_P2;PMS_P1;PMS_P2;Temp;Humidity;BMP_temperature;BMP_pressure;BME280_temperature;BME280_humidity;BME280_pressure;Samples;Min_cycle;Max_cycle;Signal;HPM_P1;HPM_P2
2023/12/15 00:00:39;;;;;;;5.80;1.20;;;;;;;-2.71;100.00;100304.23;104831;1260;72605;-58
2023/12/15 00:03:06;;;;;;;5.50;0.90;;;;;;;-2.74;100.00;100308.25;105098;1254;60549;-56
2023/12/15 00:05:33;;;;;;;5.40;0.90;;;;;;;-2.74;100.00;100311.59;104962;1256;60433;-54
2023/12/15 00:08:01;;;;;;;11.10;1.10;;;;;;;-2.75;100.00;100314.91;105000;1259;73932;-58
2023/12/15 00:10:29;;;;;;;6.60;1.00;;;;;;;-2.75;100.00;100322.82;104951;1254;66892;-58
2023/12/15 00:12:56;;;;;;;4.70;1.30;;;;;;;-2.76;100.00;100333.88;104762;1256;71258;-57
2023/12/15 00:15:23;;;;;;;4.90;1.10;;;;;;;-2.76;100.00;100334.73;104672;1258;60600;-57
2023/12/15 00:17:51;;;;;;;5.30;1.10;;;;;;;-2.79;100.00;100342.42;104790;1254;60444;-57
2023/12/15 00:20:19;;;;;;;7.20;0.80;;;;;;;-2.83;100.00;100347.30;105034;1254;73905;-58
2023/12/15 00:22:50;;;;;;;5.70;1.00;;;;;;;-2.85;100.00;100349.02;104888;1258;67028;-59
2023/12/15 00:25:17;;;;;;;4.40;0.90;;;;;;;-2.86;100.00;100345.30;104746;1257;72742;-57
2023/12/15 00:27:45;;;;;;;4.90;0.80;;;;;;;-2.84;100.00;100349.90;104777;1259;60540;-56
2023/12/15 00:30:13;;;;;;;3.60;1.10;;;;;;;-2.83;100.00;100361.70;104623;1258;60365;-56
2023/12/15 00:32:40;;;;;;;7.70;1.20;;;;;;;-2.83;100.00;100365.21;105335;1254;73908;-59
2023/12/15 00:35:08;;;;;;;5.50;1.10;;;;;;;-2.83;100.00;100374.34;104747;1260;65994;-58
2023/12/15 00:37:36;;;;;;;7.00;0.90;;;;;;;-2.84;100.00;100383.80;104782;1258;74800;-57
2023/12/15 00:40:04;;;;;;;9.80;2.20;;;;;;;-2.86;100.00;100381.31;104845;1253;60561;-56
2023/12/15 00:42:31;;;;;;;6.40;0.90;;;;;;;-2.86;100.00;100383.24;105557;1256;60471;-58
2023/12/15 00:44:59;;;;;;;11.40;1.90;;;;;;;-2.88;100.00;100388.46;104735;1258;72643;-55
2023/12/15 00:47:27;;;;;;;5.70;1.10;;;;;;;-2.88;100.00;100384.08;104772;1258;65681;-58
2023/12/15 00:49:54;;;;;;;5.80;0.80;;;;;;;-2.85;100.00;100384.33;104956;1255;71457;-55
2023/12/15 00:52:22;;;;;;;6.50;1.00;;;;;;;-2.81;100.00;100391.06;104759;1254;60412;-57
2023/12/15 00:54:49;;;;;;;1.10;0.70;;;;;;;-2.82;100.00;100389.27;104805;1256;60445;-55
2023/12/15 00:57:16;;;;;;;7.00;0.90;;;;;;;-2.85;100.00;100384.66;104781;1254;73089;-55
2023/12/15 00:59:44;;;;;;;6.70;0.80;;;;;;;-2.93;100.00;100387.53;104848;1254;66555;-56
2023/12/15 01:02:11;;;;;;;3.60;0.80;;;;;;;-3.01;100.00;100388.98;104619;1254;71877;-57
2023/12/15 01:04:39;;;;;;;1.70;0.80;;;;;;;-3.06;100.00;100383.98;104629;1261;60511;-56
2023/12/15 01:07:06;;;;;;;4.90;0.70;;;;;;;-3.09;100.00;100381.12;104653;1254;60465;-57
2023/12/15 01:09:33;;;;;;;5.90;0.70;;;;;;;-3.14;100.00;100385.06;104781;1255;73914;-59
2023/12/15 01:12:01;;;;;;;4.00;0.90;;;;;;;-3.15;100.00;100386.29;104826;1254;68044;-56
2023/12/15 01:14:28;;;;;;;2.90;0.70;;;;;;;-3.14;100.00;100384.73;104683;1258;71861;-56
2023/12/15 01:16:56;;;;;;;6.30;0.90;;;;;;;-3.10;100.00;100386.38;107716;1254;60995;-56
2023/12/15 01:19:23;;;;;;;9.80;1.20;;;;;;;-3.09;100.00;100386.74;104795;1261;60442;-57
2023/12/15 01:21:51;;;;;;;6.80;0.90;;;;;;;-3.10;100.00;100391.80;108914;1255;72660;-56
2023/12/15 01:24:18;;;;;;;7.20;0.60;;;;;;;-3.13;100.00;100389.64;108433;1256;66970;-58
2023/12/15 01:26:45;;;;;;;3.90;0.70;;;;;;;-3.16;100.00;100392.24;104656;1259;71919;-54
2023/12/15 01:29:13;;;;;;;4.90;0.70;;;;;;;-3.16;100.00;100389.79;104896;1258;60799;-57
2023/12/15 01:31:40;;;;;;;4.50;0.80;;;;;;;-3.14;100.00;100389.27;104680;1254;60483;-57
2023/12/15 01:34:08;;;;;;;4.70;0.80;;;;;;;-3.12;100.00;100389.84;104841;1258;71728;-59
2023/12/15 01:36:37;;;;;;;1.40;0.70;;;;;;;-3.08;100.00;100399.05;104759;1259;67277;-59
2023/12/15 01:39:04;;;;;;;2.90;0.80;;;;;;;-3.06;100.00;100401.35;104591;1259;73205;-56
2023/12/15 01:41:32;;;;;;;3.50;1.30;;;;;;;-3.07;100.00;100412.23;104561;1259;60467;-56
2023/12/15 01:43:59;;;;;;;6.60;0.90;;;;;;;-3.08;100.00;100426.08;104726;1256;60517;-57
2023/12/15 01:46:27;;;;;;;10.60;0.80;;;;;;;-3.09;100.00;100437.14;104837;1254;72655;-57
2023/12/15 01:48:54;;;;;;;5.60;2.10;;;;;;;-3.07;100.00;100441.20;104747;1260;67513;-59
2023/12/15 01:51:22;;;;;;;3.10;0.60;;;;;;;-3.04;100.00;100447.39;105642;1258;71371;-56
2023/12/15 01:53:49;;;;;;;6.80;0.80;;;;;;;-2.99;100.00;100459.77;104689;1257;60550;-58
2023/12/15 01:56:17;;;;;;;4.70;0.90;;;;;;;-2.94;100.00;100465.48;106878;1254;61166;-56
2023/12/15 01:58:44;;;;;;;4.60;1.20;;;;;;;-2.89;100.00;100467.15;104669;1256;74465;-56
2023/12/15 02:01:12;;;;;;;3.80;1.40;;;;;;;-2.85;100.00;100471.96;104797;1254;68781;-56
2023/12/15 02:03:40;;;;;;;4.80;1.20;;;;;;;-2.86;100.00;100478.26;104904;1259;72875;-57
2023/12/15 02:06:07;;;;;;;4.70;0.90;;;;;;;-2.91;100.00;100475.73;104716;1258;60626;-57
2023/12/15 02:08:35;;;;;;;4.10;0.80;;;;;;;-2.96;100.00;100472.64;104658;1255;61773;-55
2023/12/15 02:11:03;;;;;;;5.30;0.70;;;;;;;-2.97;100.00;100475.25;106819;1259;72458;-58
2023/12/15 02:13:30;;;;;;;2.80;0.60;;;;;;;-2.98;100.00;100477.35;104739;1254;67254;-55
2023/12/15 02:15:58;;;;;;;2.30;0.70;;;;;;;-2.94;100.00;100487.06;104871;1256;71601;-58
2023/12/15 02:18:25;;;;;;;3.90;0.90;;;;;;;-2.89;100.00;100495.42;104775;1254;60526;-58
2023/12/15 02:20:53;;;;;;;5.70;1.00;;;;;;;-2.84;100.00;100506.41;108023;1255;60460;-55
2023/12/15 02:23:20;;;;;;;4.30;1.10;;;;;;;-2.79;100.00;100516.65;104650;1256;76116;-57
2023/12/15 02:25:48;;;;;;;4.50;0.90;;;;;;;-2.79;100.00;100521.42;104706;1254;65786;-55
2023/12/15 02:28:15;;;;;;;1.20;0.70;;;;;;;-2.80;100.00;100530.88;104737;1258;74616;-57
2023/12/15 02:30:42;;;;;;;3.40;0.80;;;;;;;-2.82;100.00;100538.41;104568;1256;60584;-56
2023/12/15 02:33:11;;;;;;;2.60;0.60;;;;;;;-2.82;100.00;100548.41;104685;1254;60547;-57
2023/12/15 02:35:40;;;;;;;8.50;0.80;;;;;;;-2.81;100.00;100561.27;104596;1256;73842;-55
2023/12/15 02:38:07;;;;;;;3.10;0.70;;;;;;;-2.78;100.00;100567.98;104690;1257;65780;-57
2023/12/15 02:40:35;;;;;;;3.60;0.80;;;;;;;-2.74;100.00;100573.50;104949;1259;71473;-59
2023/12/15 02:43:03;;;;;;;6.50;1.40;;;;;;;-2.68;100.00;100578.01;104705;1254;60439;-56
2023/12/15 02:45:30;;;;;;;3.50;1.00;;;;;;;-2.62;100.00;100587.96;105481;1257;59826;-59
2023/12/15 02:47:58;;;;;;;1.70;0.70;;;;;;;-2.60;100.00;100602.40;104717;1254;73098;-58
2023/12/15 02:50:25;;;;;;;3.60;0.80;;;;;;;-2.59;100.00;100613.48;105074;1257;67682;-58
2023/12/15 02:52:53;;;;;;;6.00;1.30;;;;;;;-2.60;100.00;100621.36;104852;1254;72752;-56
2023/12/15 02:55:20;;;;;;;4.80;1.30;;;;;;;-2.62;100.00;100622.73;108804;1254;58617;-56
2023/12/15 02:57:47;;;;;;;6.10;0.90;;;;;;;-2.62;100.00;100628.36;104932;1258;60637;-59
2023/12/15 03:00:15;;;;;;;2.60;0.70;;;;;;;-2.61;100.00;100626.44;104988;1254;74155;-58
2023/12/15 03:02:42;;;;;;;6.90;0.80;;;;;;;-2.59;100.00;100625.98;104770;1254;66689;-57
2023/12/15 03:05:10;;;;;;;4.10;0.80;;;;;;;-2.54;100.00;100627.29;104806;1254;72826;-57
2023/12/15 03:07:37;;;;;;;3.30;1.00;;;;;;;-2.50;100.00;100630.53;104753;1256;60563;-58
2023/12/15 03:10:06;;;;;;;6.90;0.90;;;;;;;-2.49;100.00;100634.25;104585;1253;62294;-56
2023/12/15 03:12:33;;;;;;;3.90;1.20;;;;;;;-2.49;100.00;100638.64;104843;1254;73938;-58
2023/12/15 03:15:00;;;;;;;4.90;1.00;;;;;;;-2.49;100.00;100643.02;104856;1255;66901;-57
2023/12/15 03:17:30;;;;;;;3.70;1.10;;;;;;;-2.49;100.00;100646.72;104715;1254;71937;-57
2023/12/15 03:19:57;;;;;;;5.90;1.20;;;;;;;-2.50;100.00;100649.16;104888;1254;63500;-57
2023/12/15 03:22:25;;;;;;;5.00;0.80;;;;;;;-2.52;100.00;100651.76;104806;1255;60639;-57
2023/12/15 03:24:52;;;;;;;5.10;0.70;;;;;;;-2.52;100.00;100650.33;104572;1255;74252;-57
2023/12/15 03:27:19;;;;;;;5.30;0.90;;;;;;;-2.52;100.00;100652.45;104798;1258;66751;-58
2023/12/15 03:29:47;;;;;;;7.50;0.80;;;;;;;-2.48;100.00;100654.46;104842;1255;72209;-58
2023/12/15 03:32:14;;;;;;;6.50;1.40;;;;;;;-2.46;100.00;100647.81;104781;1254;60652;-56
2023/12/15 03:34:42;;;;;;;9.20;1.00;;;;;;;-2.42;100.00;100653.35;104712;1255;60535;-58
2023/12/15 03:37:09;;;;;;;1.80;0.80;;;;;;;-2.42;100.00;100651.60;104920;1259;71526;-56
2023/12/15 03:41:40;;;;;;;5.00;1.10;;;;;;;-2.48;100.00;100754.48;101767;1292;601157;-58
2023/12/15 03:44:07;;;;;;;9.60;0.90;;;;;;;-2.50;100.00;100787.63;104134;1267;63391;-58
2023/12/15 03:46:35;;;;;;;4.00;0.80;;;;;;;-2.51;100.00;100771.64;104044;1267;60010;-57
2023/12/15 03:49:02;;;;;;;4.90;0.60;;;;;;;-2.49;100.00;100763.41;103836;1272;71049;-58
2023/12/15 03:51:30;;;;;;;2.50;0.90;;;;;;;-2.46;100.00;100761.00;104107;1267;65811;-57
2023/12/15 03:53:57;;;;;;;3.00;0.80;;;;;;;-2.44;100.00;100754.72;103936;1268;74341;-56
2023/12/15 03:56:25;;;;;;;5.00;0.90;;;;;;;-2.41;100.00;100754.27;101594;1264;3577654;-56
2023/12/15 03:58:53;;;;;;;3.50;0.80;;;;;;;-2.39;100.00;100748.33;103955;1269;59310;-59
2023/12/15 04:01:21;;;;;;;4.80;0.90;;;;;;;-2.42;100.00;100746.85;104033;1263;59330;-58
2023/12/15 04:03:48;;;;;;;3.90;0.80;;;;;;;-2.47;100.00;100745.35;104303;1263;65716;-58
2023/12/15 04:06:15;;;;;;;3.90;1.10;;;;;;;-2.50;100.00;100739.85;104093;1269;75595;-58
2023/12/15 04:08:43;;;;;;;6.80;0.70;;;;;;;-2.50;100.00;100737.73;104712;1263;60942;-59
2023/12/15 04:11:10;;;;;;;3.70;0.90;;;;;;;-2.48;100.00;100740.23;104441;1257;60240;-58
2023/12/15 04:13:38;;;;;;;10.00;0.80;;;;;;;-2.44;100.00;100741.73;104984;1257;73075;-59
2023/12/15 04:16:06;;;;;;;11.10;0.90;;;;;;;-2.38;100.00;100739.90;104552;1262;65624;-59
2023/12/15 04:18:33;;;;;;;3.30;0.80;;;;;;;-2.33;100.00;100739.83;104626;1260;72927;-60
2023/12/15 04:21:03;;;;;;;4.70;0.80;;;;;;;-2.28;100.00;100744.30;108176;1257;59803;-58
2023/12/15 04:23:31;;;;;;;6.60;1.10;;;;;;;-2.25;100.00;100748.23;108681;1256;59115;-58
2023/12/15 04:25:59;;;;;;;5.40;1.30;;;;;;;-2.26;100.00;100740.64;108778;1257;73126;-58
2023/12/15 04:28:27;;;;;;;4.90;0.90;;;;;;;-2.29;100.00;100744.29;108689;1257;64733;-58
2023/12/15 04:30:54;;;;;;;6.70;2.20;;;;;;;-2.31;100.00;100738.46;108712;1262;72860;-58
2023/12/15 04:33:22;;;;;;;7.30;1.10;;;;;;;-2.32;100.00;100740.71;108657;1257;61364;-58
2023/12/15 04:35:49;;;;;;;5.50;0.90;;;;;;;-2.33;100.00;100740.36;108815;1260;59968;-59
2023/12/15 04:38:16;;;;;;;3.90;0.90;;;;;;;-2.31;100.00;100743.39;108678;1257;73660;-59
2023/12/15 04:40:44;;;;;;;8.50;1.20;;;;;;;-2.27;100.00;100747.14;105485;1257;67201;-59
2023/12/15 04:43:11;;;;;;;6.60;1.00;;;;;;;-2.23;100.00;100753.21;104326;1257;72708;-58
2023/12/15 04:45:39;;;;;;;9.90;1.10;;;;;;;-2.21;100.00;100758.67;104555;1258;59920;-58
2023/12/15 04:48:06;;;;;;;7.70;1.80;;;;;;;-2.19;100.00;100766.81;104501;1257;59634;-58
2023/12/15 04:50:34;;;;;;;7.40;1.80;;;;;;;-2.20;100.00;100772.23;104575;1262;73127;-59
2023/12/15 04:53:04;;;;;;;12.10;2.00;;;;;;;-2.21;100.00;100778.37;104692;1263;67265;-59
2023/12/15 04:55:32;;;;;;;9.10;2.20;;;;;;;-2.22;100.00;100780.48;108722;1259;71430;-60
2023/12/15 04:58:00;;;;;;;5.30;1.30;;;;;;;-2.24;100.00;100786.91;107577;1260;59752;-59
2023/12/15 05:00:28;;;;;;;10.30;1.10;;;;;;;-2.27;100.00;100787.56;104533;1263;60006;-59
2023/12/15 05:02:55;;;;;;;6.80;1.30;;;;;;;-2.27;100.00;100796.89;104542;1257;70973;-60
2023/12/15 05:05:22;;;;;;;7.90;1.40;;;;;;;-2.23;100.00;100808.77;104711;1258;65830;-60
2023/12/15 05:07:50;;;;;;;4.90;1.20;;;;;;;-2.18;100.00;100819.58;104516;1257;72959;-60
2023/12/15 05:10:17;;;;;;;10.30;2.10;;;;;;;-2.15;100.00;100831.61;104496;1262;59648;-60
2023/12/15 05:12:45;;;;;;;6.20;1.20;;;;;;;-2.12;100.00;100838.70;104782;1262;59636;-57
2023/12/15 05:15:13;;;;;;;7.80;1.70;;;;;;;-2.11;100.00;100841.35;104706;1257;73622;-59
2023/12/15 05:17:40;;;;;;;4.70;1.90;;;;;;;-2.11;100.00;100850.66;104511;1257;65075;-60
2023/12/15 05:20:10;;;;;;;4.50;1.60;;;;;;;-2.12;100.00;100855.58;104416;1258;70480;-59
2023/12/15 05:22:38;;;;;;;6.50;1.60;;;;;;;-2.14;100.00;100857.99;106311;1257;59790;-60
2023/12/15 05:25:05;;;;;;;10.60;2.60;;;;;;;-2.17;100.00;100856.38;104613;1263;59633;-59
2023/12/15 05:27:33;;;;;;;5.30;1.90;;;;;;;-2.20;100.00;100854.35;104637;1262;72791;-59
2023/12/15 05:30:00;;;;;;;5.50;1.70;;;;;;;-2.22;100.00;100855.56;107938;1263;65758;-59
2023/12/15 05:32:28;;;;;;;9.00;1.70;;;;;;;-2.21;100.00;100859.61;104509;1262;71406;-58
2023/12/15 05:34:55;;;;;;;10.60;1.90;;;;;;;-2.18;100.00;100861.95;104531;1257;59638;-60
2023/12/15 05:37:23;;;;;;;4.00;1.90;;;;;;;-2.13;100.00;100867.88;104853;1257;59662;-60
2023/12/15 05:39:50;;;;;;;3.80;2.10;;;;;;;-2.07;100.00;100879.43;104458;1262;72110;-59
2023/12/15 05:42:18;;;;;;;10.90;2.30;;;;;;;-2.01;100.00;100889.92;104545;1257;64697;-60
2023/12/15 05:44:45;;;;;;;11.30;2.70;;;;;;;-1.99;100.00;100894.90;104483;1263;71041;-60
2023/12/15 05:47:13;;;;;;;15.80;3.90;;;;;;;-1.96;100.00;100904.98;104625;1257;59662;-59
2023/12/15 05:49:40;;;;;;;9.80;3.50;;;;;;;-1.95;100.00;100910.98;104714;1257;59717;-60
2023/12/15 05:52:11;;;;;;;6.40;2.60;;;;;;;-1.95;100.00;100916.25;104717;1257;71792;-59
2023/12/15 05:54:39;;;;;;;15.50;3.60;;;;;;;-1.97;100.00;100922.91;105549;1258;65569;-58
2023/12/15 05:57:07;;;;;;;12.70;2.70;;;;;;;-1.99;100.00;100929.38;104812;1257;72666;-59
2023/12/15 05:59:39;;;;;;;11.40;2.70;;;;;;;-2.00;100.00;100936.21;105072;1260;59744;-59
2023/12/15 06:02:06;;;;;;;5.50;1.70;;;;;;;-1.99;100.00;100932.55;104688;1262;59656;-60
2023/12/15 06:04:34;;;;;;;12.00;1.90;;;;;;;-1.96;100.00;100935.41;104679;1257;73490;-59
2023/12/15 06:07:01;;;;;;;7.50;2.20;;;;;;;-1.92;100.00;100939.55;104608;1263;66091;-59
2023/12/15 06:09:29;;;;;;;11.90;3.00;;;;;;;-1.87;100.00;100946.86;104649;1263;72682;-59
2023/12/15 06:11:57;;;;;;;12.40;3.60;;;;;;;-1.82;100.00;100947.33;104533;1263;62626;-59
2023/12/15 06:14:25;;;;;;;9.20;3.60;;;;;;;-1.77;100.00;100955.16;104559;1263;59648;-59
2023/12/15 06:16:52;;;;;;;8.00;3.30;;;;;;;-1.73;100.00;100957.91;104856;1259;71758;-59
2023/12/15 06:19:20;;;;;;;11.90;3.80;;;;;;;-1.71;100.00;100960.05;104557;1257;67982;-59
2023/12/15 06:21:48;;;;;;;10.20;4.40;;;;;;;-1.72;100.00;100968.29;104666;1257;73633;-59
2023/12/15 06:24:16;;;;;;;10.00;4.30;;;;;;;-1.74;100.00;100968.42;104848;1262;59660;-60
2023/12/15 06:26:43;;;;;;;10.40;3.10;;;;;;;-1.76;100.00;100972.24;104571;1257;59507;-59
2023/12/15 06:29:10;;;;;;;5.60;3.00;;;;;;;-1.77;100.00;100974.68;104611;1257;73144;-59
2023/12/15 06:31:46;;;;;;;15.90;3.70;;;;;;;-1.77;100.00;100978.04;104618;1263;67570;-59
2023/12/15 06:34:14;;;;;;;4.60;1.60;;;;;;;-1.74;100.00;100985.15;104615;1263;71731;-59
2023/12/15 06:36:41;;;;;;;6.70;2.20;;;;;;;-1.70;100.00;100989.27;104539;1262;60265;-59
2023/12/15 06:39:09;;;;;;;5.80;3.00;;;;;;;-1.67;100.00;100987.76;104549;1262;59631;-59
2023/12/15 06:41:36;;;;;;;14.40;4.00;;;;;;;-1.62;100.00;100994.20;104502;1260;72902;-60
2023/12/15 06:44:05;;;;;;;9.00;2.70;;;;;;;-1.58;100.00;100996.39;104810;1263;65781;-59
2023/12/15 06:46:36;;;;;;;8.80;4.60;;;;;;;-1.55;100.00;101000.69;108659;1262;70998;-61
2023/12/15 06:49:04;;;;;;;13.00;3.20;;;;;;;-1.52;100.00;101005.81;104641;1263;60229;-58
2023/12/15 06:51:31;;;;;;;9.70;3.40;;;;;;;-1.53;100.00;101010.22;104559;1263;59718;-60
2023/12/15 06:53:59;;;;;;;8.90;3.60;;;;;;;-1.53;100.00;101012.48;104488;1258;71921;-56
2023/12/15 06:56:26;;;;;;;11.40;3.10;;;;;;;-1.55;100.00;101016.88;104514;1263;65686;-59
2023/12/15 06:58:54;;;;;;;5.60;2.10;;;;;;;-1.56;100.00;101017.57;104428;1261;71466;-59
2023/12/15 07:01:21;;;;;;;6.80;2.50;;;;;;;-1.53;100.00;101021.48;104695;1260;59862;-60
2023/12/15 07:03:49;;;;;;;10.60;2.60;;;;;;;-1.50;100.00;101021.89;104386;1257;60222;-59
2023/12/15 07:06:18;;;;;;;5.90;2.90;;;;;;;-1.43;100.00;101030.31;104408;1259;73099;-57
2023/12/15 07:08:50;;;;;;;9.40;2.80;;;;;;;-1.35;100.00;101036.81;106272;1257;65919;-56
2023/12/15 07:11:18;;;;;;;16.00;3.30;;;;;;;-1.28;100.00;101042.95;104428;1260;71439;-60
2023/12/15 07:13:46;;;;;;;12.50;3.30;;;;;;;-1.25;100.00;101046.34;108731;1258;58268;-59
2023/12/15 07:16:13;;;;;;;11.70;3.30;;;;;;;-1.24;100.00;101050.77;108656;1257;58834;-59
2023/12/15 07:18:41;;;;;;;5.70;3.50;;;;;;;-1.23;100.00;101047.27;108745;1257;73176;-59
2023/12/15 07:21:09;;;;;;;8.20;3.50;;;;;;;-1.22;100.00;101053.80;108653;1257;65601;-59
2023/12/15 07:23:37;;;;;;;11.80;2.90;;;;;;;-1.23;100.00;101056.45;108712;1263;72747;-59
2023/12/15 07:26:05;;;;;;;7.70;2.70;;;;;;;-1.22;100.00;101057.33;108635;1260;59692;-59
2023/12/15 07:28:33;;;;;;;8.10;2.50;;;;;;;-1.20;100.00;101066.52;108705;1260;60069;-59
2023/12/15 07:31:00;;;;;;;11.50;5.50;;;;;;;-1.17;100.00;101069.92;107980;1260;73120;-59
2023/12/15 07:33:28;;;;;;;9.80;4.80;;;;;;;-1.10;100.00;101074.64;108706;1260;66013;-59
2023/12/15 07:35:56;;;;;;;11.90;5.60;;;;;;;-1.04;100.00;101082.17;108607;1257;72769;-59
2023/12/15 07:38:23;;;;;;;9.10;4.20;;;;;;;-1.00;100.00;101089.30;108719;1257;59321;-58
2023/12/15 07:40:54;;;;;;;9.80;5.10;;;;;;;-0.97;100.00;101093.59;104982;1258;60125;-60
2023/12/15 07:43:22;;;;;;;11.80;6.40;;;;;;;-0.94;100.00;101097.00;108708;1259;73425;-58
2023/12/15 07:45:49;;;;;;;12.10;6.20;;;;;;;-0.94;100.00;101099.48;105486;1258;67640;-58
2023/12/15 07:48:17;;;;;;;11.10;6.00;;;;;;;-0.94;100.00;101103.35;104583;1257;72713;-58
2023/12/15 07:50:45;;;;;;;13.90;6.10;;;;;;;-0.92;100.00;101108.11;104465;1263;61030;-55
2023/12/15 07:53:12;;;;;;;17.00;6.30;;;;;;;-0.92;100.00;101113.59;106499;1262;59183;-59
2023/12/15 07:55:40;;;;;;;11.30;5.80;;;;;;;-0.89;100.00;101119.64;104686;1262;73863;-57
2023/12/15 07:58:11;;;;;;;13.80;6.20;;;;;;;-0.84;100.00;101126.09;104785;1263;66011;-57
2023/12/15 08:00:38;;;;;;;16.70;5.50;;;;;;;-0.77;100.00;101135.58;104701;1263;73035;-58
2023/12/15 08:03:06;;;;;;;14.60;6.10;;;;;;;-0.70;100.00;101143.30;104628;1263;60487;-58
2023/12/15 08:05:33;;;;;;;9.80;6.80;;;;;;;-0.65;100.00;101151.31;104396;1263;60564;-58
2023/12/15 08:08:01;;;;;;;17.10;6.50;;;;;;;-0.60;100.00;101160.41;108687;1257;74073;-59
2023/12/15 08:10:30;;;;;;;11.90;6.40;;;;;;;-0.59;100.00;101172.05;105483;1263;65730;-59
2023/12/15 08:12:58;;;;;;;12.20;6.10;;;;;;;-0.58;100.00;101174.01;104494;1263;72357;-58
2023/12/15 08:15:25;;;;;;;11.90;4.30;;;;;;;-0.59;100.00;101185.09;104593;1262;60918;-59
2023/12/15 08:17:53;;;;;;;11.10;4.50;;;;;;;-0.59;100.00;101186.86;104672;1260;60521;-59
2023/12/15 08:20:21;;;;;;;9.80;5.10;;;;;;;-0.59;100.00;101192.86;104509;1263;72051;-59
2023/12/15 08:22:49;;;;;;;10.80;4.50;;;;;;;-0.58;100.00;101196.77;105722;1262;66286;-58
2023/12/15 08:25:16;;;;;;;7.80;4.90;;;;;;;-0.53;100.00;101201.09;104585;1261;71446;-58
2023/12/15 08:27:44;;;;;;;7.80;5.10;;;;;;;-0.46;100.00;101204.77;104528;1260;61964;-59
2023/12/15 08:30:12;;;;;;;11.20;5.70;;;;;;;-0.38;100.00;101216.73;104607;1262;60415;-58
2023/12/15 08:32:39;;;;;;;14.90;5.40;;;;;;;-0.32;100.00;101225.65;104602;1263;72847;-58
2023/12/15 08:35:07;;;;;;;10.90;5.90;;;;;;;-0.28;100.00;101233.16;104627;1263;66877;-57
2023/12/15 08:37:35;;;;;;;10.20;6.20;;;;;;;-0.25;100.00;101235.50;105390;1257;71516;-58
2023/12/15 08:40:03;;;;;;;10.10;5.40;;;;;;;-0.23;100.00;101237.46;104726;1260;60667;-58
2023/12/15 08:42:31;;;;;;;8.30;5.10;;;;;;;-0.24;100.00;101239.92;104615;1263;60440;-57
2023/12/15 08:44:59;;;;;;;8.50;4.10;;;;;;;-0.26;100.00;101233.19;104470;1257;74344;-57
2023/12/15 08:47:27;;;;;;;9.90;5.70;;;;;;;-0.26;100.00;101236.55;104609;1263;65546;-58
2023/12/15 08:49:54;;;;;;;10.70;3.50;;;;;;;-0.26;100.00;101238.84;104641;1262;73178;-58
2023/12/15 08:52:21;;;;;;;10.30;3.60;;;;;;;-0.24;100.00;101249.45;104759;1257;60508;-58
2023/12/15 08:54:49;;;;;;;8.60;2.50;;;;;;;-0.20;100.00;101256.41;104802;1264;60543;-58
2023/12/15 08:57:16;;;;;;;6.00;2.40;;;;;;;-0.16;100.00;101265.84;104744;1256;72898;-58
2023/12/15 08:59:44;;;;;;;4.40;2.70;;;;;;;-0.12;100.00;101273.33;104912;1263;65782;-59
2023/12/15 09:02:12;;;;;;;5.10;2.50;;;;;;;-0.10;100.00;101278.48;104643;1263;75338;-58
2023/12/15 09:04:39;;;;;;;5.40;2.90;;;;;;;-0.10;100.00;101282.56;105306;1257;61357;-58
2023/12/15 09:07:22;;;;;;;9.70;3.90;;;;;;;-0.10;100.00;101301.07;106130;1261;59655;-57
2023/12/15 09:09:49;;;;;;;14.50;4.80;;;;;;;-0.11;100.00;101296.10;104736;1263;71637;-58
2023/12/15 09:12:17;;;;;;;4.70;2.50;;;;;;;-0.11;100.00;101296.83;104719;1266;67448;-58
2023/12/15 09:14:44;;;;;;;4.30;2.30;;;;;;;-0.10;100.00;101297.90;104806;1263;70994;-58
2023/12/15 09:17:13;;;;;;;7.00;2.30;;;;;;;-0.09;100.00;101301.45;104621;1257;60546;-58
2023/12/15 09:19:40;;;;;;;5.40;3.00;;;;;;;-0.05;100.00;101311.39;104615;1262;60565;-57
2023/12/15 09:22:08;;;;;;;11.40;3.40;;;;;;;-0.01;100.00;101315.20;105248;1260;74271;-58
2023/12/15 09:24:36;;;;;;;8.60;4.20;;;;;;;0.04;100.00;101324.27;104567;1256;66494;-58
2023/12/15 09:27:03;;;;;;;5.60;3.60;;;;;;;0.06;100.00;101326.62;104266;1266;72702;-58
2023/12/15 09:29:34;;;;;;;7.90;4.10;;;;;;;0.08;100.00;101331.06;104600;1262;60370;-57
2023/12/15 09:32:02;;;;;;;6.60;5.30;;;;;;;0.10;100.00;101333.73;104717;1263;60466;-59
2023/12/15 09:34:30;;;;;;;15.20;5.90;;;;;;;0.11;100.00;101330.23;104541;1263;75264;-59
2023/12/15 09:36:58;;;;;;;6.50;4.30;;;;;;;0.12;100.00;101333.98;104859;1263;67861;-59
2023/12/15 09:39:25;;;;;;;7.50;4.20;;;;;;;0.14;100.00;101339.65;104728;1263;74339;-59
2023/12/15 09:41:52;;;;;;;4.40;3.20;;;;;;;0.17;100.00;101339.00;104686;1266;60642;-58
2023/12/15 09:44:20;;;;;;;6.30;3.40;;;;;;;0.21;100.00;101347.73;104551;1257;60687;-59
2023/12/15 09:46:48;;;;;;;4.90;4.00;;;;;;;0.26;100.00;101352.61;104689;1257;73909;-57
2023/12/15 09:49:16;;;;;;;8.90;3.50;;;;;;;0.32;100.00;101357.67;104724;1263;66743;-58
2023/12/15 09:51:49;;;;;;;13.70;5.20;;;;;;;0.38;100.00;101362.20;105092;1260;75099;-58
2023/12/15 09:54:18;;;;;;;11.90;5.80;;;;;;;0.44;100.00;101367.91;104558;1262;60523;-59
2023/12/15 09:56:49;;;;;;;9.40;6.30;;;;;;;0.47;100.00;101379.83;104481;1258;60390;-59
2023/12/15 09:59:16;;;;;;;9.20;5.60;;;;;;;0.48;100.00;101386.56;104592;1263;73854;-58
2023/12/15 10:01:44;;;;;;;6.60;4.80;;;;;;;0.48;100.00;101396.45;104711;1267;65806;-59
2023/12/15 10:04:11;;;;;;;9.00;4.70;;;;;;;0.48;100.00;101398.40;104524;1262;71636;-58
2023/12/15 10:06:39;;;;;;;7.10;4.50;;;;;;;0.49;100.00;101390.29;104823;1257;61193;-58
2023/12/15 10:09:15;;;;;;;4.50;3.20;;;;;;;0.50;100.00;101392.78;104654;1260;60443;-58
2023/12/15 10:11:46;;;;;;;3.90;2.70;;;;;;;0.54;100.00;101398.84;104453;1264;72649;-58
2023/12/15 10:14:15;;;;;;;4.60;2.30;;;;;;;0.58;100.00;101404.59;104699;1267;65998;-58
2023/12/15 10:16:43;;;;;;;5.10;3.10;;;;;;;0.65;100.00;101402.08;108679;1260;72922;-59
2023/12/15 10:19:10;;;;;;;5.20;2.70;;;;;;;0.70;100.00;101403.04;108830;1257;59816;-59
2023/12/15 10:21:38;;;;;;;3.90;3.10;;;;;;;0.75;100.00;101405.79;108690;1257;58819;-59
2023/12/15 10:24:22;;;;;;;6.10;3.70;;;;;;;0.80;100.00;101410.09;108715;1257;72747;-59
2023/12/15 10:26:49;;;;;;;8.50;3.80;;;;;;;0.83;100.00;101422.55;108765;1257;65573;-59
2023/12/15 10:29:18;;;;;;;5.30;3.90;;;;;;;0.85;100.00;101416.04;108720;1257;72742;-59
2023/12/15 10:31:50;;;;;;;5.40;4.40;;;;;;;0.86;100.00;101418.69;108654;1257;59381;-58
2023/12/15 10:34:21;;;;;;;8.80;5.60;;;;;;;0.86;100.00;101425.03;108688;1256;58853;-59
2023/12/15 10:36:48;;;;;;;5.80;4.60;;;;;;;0.85;100.00;101426.45;108706;1256;74878;-59
2023/12/15 10:39:17;;;;;;;4.70;3.60;;;;;;;0.85;100.00;101428.39;109056;1254;64754;-59
2023/12/15 10:41:45;;;;;;;3.10;2.50;;;;;;;0.86;100.00;101433.36;109019;1254;71421;-58
2023/12/15 10:44:12;;;;;;;4.80;3.00;;;;;;;0.89;100.00;101435.88;108966;1254;59659;-58
2023/12/15 10:46:42;;;;;;;5.60;3.00;;;;;;;0.92;100.00;101443.20;108926;1255;58751;-59
2023/12/15 10:49:10;;;;;;;5.40;3.70;;;;;;;0.97;100.00;101447.15;109039;1253;73915;-59
2023/12/15 10:51:38;;;;;;;7.10;3.80;;;;;;;1.01;100.00;101449.71;108943;1254;67054;-59
2023/12/15 10:54:05;;;;;;;7.90;4.70;;;;;;;1.06;100.00;101456.15;108930;1258;72669;-59
2023/12/15 10:56:34;;;;;;;10.40;6.70;;;;;;;1.08;100.00;101458.87;108967;1254;59362;-59
2023/12/15 10:59:01;;;;;;;10.60;5.60;;;;;;;1.10;100.00;101462.96;107460;1254;59274;-59
2023/12/15 11:01:29;;;;;;;8.00;5.70;;;;;;;1.11;100.00;101463.67;104796;1254;72695;-58
2023/12/15 11:03:57;;;;;;;8.20;5.10;;;;;;;1.11;100.00;101465.45;104860;1254;67086;-58
2023/12/15 11:06:32;;;;;;;7.30;4.90;;;;;;;1.10;100.00;101466.14;104808;1254;72243;-59
2023/12/15 11:09:00;;;;;;;7.10;4.50;;;;;;;1.09;100.00;101469.66;106708;1259;61610;-59
2023/12/15 11:11:29;;;;;;;5.50;4.00;;;;;;;1.08;100.00;101468.76;106059;1258;61121;-59
2023/12/15 11:14:04;;;;;;;7.20;3.60;;;;;;;1.07;100.00;101474.39;104809;1258;72694;-59